sensor_id;sensor_type;location;lat;lon;timestamp;temperature;humidity
7958;DHT22;4024;52.172;5.378;2023-04-03T00:01:21;6.90;99.90
7958;DHT22;4024;52.172;5.378;2023-04-03T00:03:50;6.90;99.90
7958;DHT22;4024;52.172;5.378;2023-04-03T00:06:27;6.90;99.90
7958;DHT22;4024;52.172;5.378;2023-04-03T00:08:54;6.80;99.90
7958;DHT22;4024;52.172;5.378;2023-04-03T00:11:29;6.80;99.90
7958;DHT22;4024;52.172;5.378;2023-04-03T00:13:55;6.80;99.90
7958;DHT22;4024;52.172;5.378;2023-04-03T00:16:21;6.80;99.90
7958;DHT22;4024;52.172;5.378;2023-04-03T00:18:49;6.80;99.90
7958;DHT22;4024;52.172;5.378;2023-04-03T00:21:15;6.80;99.90
7958;DHT22;4024;52.172;5.378;2023-04-03T00:23:41;6.70;99.90
7958;DHT22;4024;52.172;5.378;2023-04-03T00:26:06;6.70;99.90
7958;DHT22;4024;52.172;5.378;2023-04-03T00:28:32;6.70;99.90
7958;DHT22;4024;52.172;5.378;2023-04-03T00:31:00;6.70;99.90
7958;DHT22;4024;52.172;5.378;2023-04-03T00:33:25;6.60;99.90
7958;DHT22;4024;52.172;5.378;2023-04-03T00:35:51;6.60;99.90
7958;DHT22;4024;52.172;5.378;2023-04-03T00:38:17;6.60;99.90
7958;DHT22;4024;52.172;5.378;2023-04-03T00:40:48;6.60;99.90
7958;DHT22;4024;52.172;5.378;2023-04-03T00:43:21;6.50;99.90
7958;DHT22;4024;52.172;5.378;2023-04-03T00:45:55;6.50;99.90
7958;DHT22;4024;52.172;5.378;2023-04-03T00:48:31;6.50;99.90
7958;DHT22;4024;52.172;5.378;2023-04-03T00:50:58;6.40;99.90
7958;DHT22;4024;52.172;5.378;2023-04-03T00:53:29;6.50;99.90
7958;DHT22;4024;52.172;5.378;2023-04-03T00:55:56;6.40;99.90
7958;DHT22;4024;52.172;5.378;2023-04-03T00:58:48;6.40;99.90
7958;DHT22;4024;52.172;5.378;2023-04-03T01:01:15;6.40;99.90
7958;DHT22;4024;52.172;5.378;2023-04-03T01:03:42;6.40;99.90
7958;DHT22;4024;52.172;5.378;2023-04-03T01:06:07;6.40;99.90
7958;DHT22;4024;52.172;5.378;2023-04-03T01:08:34;6.30;99.90
7958;DHT22;4024;52.172;5.378;2023-04-03T01:11:00;6.30;99.90
7958;DHT22;4024;52.172;5.378;2023-04-03T01:13:31;6.30;99.90
7958;DHT22;4024;52.172;5.378;2023-04-03T01:16:01;6.20;99.90
7958;DHT22;4024;52.172;5.378;2023-04-03T01:18:27;6.20;99.90
7958;DHT22;4024;52.172;5.378;2023-04-03T01:24:05;6.20;99.90
7958;DHT22;4024;52.172;5.378;2023-04-03T01:26:34;6.20;99.90
7958;DHT22;4024;52.172;5.378;2023-04-03T01:29:01;6.20;99.90
7958;DHT22;4024;52.172;5.378;2023-04-03T01:34:02;6.10;99.90
7958;DHT22;4024;52.172;5.378;2023-04-03T01:36:30;6.10;99.90
7958;DHT22;4024;52.172;5.378;2023-04-03T01:38:58;6.10;99.90
7958;DHT22;4024;52.172;5.378;2023-04-03T01:41:25;6.10;99.90
7958;DHT22;4024;52.172;5.378;2023-04-03T01:43:51;6.10;99.90
7958;DHT22;4024;52.172;5.378;2023-04-03T01:46:17;6.00;99.90
7958;DHT22;4024;52.172;5.378;2023-04-03T01:48:43;6.00;99.90
7958;DHT22;4024;52.172;5.378;2023-04-03T01:51:09;6.00;99.90
7958;DHT22;4024;52.172;5.378;2023-04-03T01:53:35;6.00;99.90
7958;DHT22;4024;52.172;5.378;2023-04-03T01:56:01;6.00;99.90
7958;DHT22;4024;52.172;5.378;2023-04-03T01:58:26;6.00;99.90
7958;DHT22;4024;52.172;5.378;2023-04-03T02:00:52;5.90;99.90
7958;DHT22;4024;52.172;5.378;2023-04-03T02:03:18;5.90;99.90
7958;DHT22;4024;52.172;5.378;2023-04-03T02:05:44;5.90;99.90
7958;DHT22;4024;52.172;5.378;2023-04-03T02:08:10;5.90;99.90
7958;DHT22;4024;52.172;5.378;2023-04-03T02:10:36;5.90;99.90
7958;DHT22;4024;52.172;5.378;2023-04-03T02:13:02;5.90;99.90
7958;DHT22;4024;52.172;5.378;2023-04-03T02:15:28;5.90;99.90
7958;DHT22;4024;52.172;5.378;2023-04-03T02:17:53;5.80;99.90
7958;DHT22;4024;52.172;5.378;2023-04-03T02:20:19;5.80;99.90
7958;DHT22;4024;52.172;5.378;2023-04-03T02:22:45;5.80;99.90
7958;DHT22;4024;52.172;5.378;2023-04-03T02:25:11;5.80;99.90
7958;DHT22;4024;52.172;5.378;2023-04-03T02:27:38;5.80;99.90
7958;DHT22;4024;52.172;5.378;2023-04-03T02:30:04;5.80;99.90
7958;DHT22;4024;52.172;5.378;2023-04-03T02:32:30;5.70;99.90
7958;DHT22;4024;52.172;5.378;2023-04-03T02:34:56;5.70;99.90
7958;DHT22;4024;52.172;5.378;2023-04-03T02:37:22;5.70;99.90
7958;DHT22;4024;52.172;5.378;2023-04-03T02:39:47;5.70;99.90
7958;DHT22;4024;52.172;5.378;2023-04-03T02:42:13;5.70;99.90
7958;DHT22;4024;52.172;5.378;2023-04-03T02:44:39;5.60;99.90
7958;DHT22;4024;52.172;5.378;2023-04-03T02:47:05;5.60;99.90
7958;DHT22;4024;52.172;5.378;2023-04-03T02:49:30;5.60;99.90
7958;DHT22;4024;52.172;5.378;2023-04-03T02:51:56;5.60;99.90
7958;DHT22;4024;52.172;5.378;2023-04-03T02:54:22;5.60;99.90
7958;DHT22;4024;52.172;5.378;2023-04-03T02:56:48;5.60;99.90
7958;DHT22;4024;52.172;5.378;2023-04-03T02:59:14;5.50;99.90
7958;DHT22;4024;52.172;5.378;2023-04-03T03:01:40;5.50;99.90
7958;DHT22;4024;52.172;5.378;2023-04-03T03:04:06;5.50;99.90
7958;DHT22;4024;52.172;5.378;2023-04-03T03:06:32;5.50;99.90
7958;DHT22;4024;52.172;5.378;2023-04-03T03:08:57;5.50;99.90
7958;DHT22;4024;52.172;5.378;2023-04-03T03:11:23;5.40;99.90
7958;DHT22;4024;52.172;5.378;2023-04-03T03:13:49;5.40;99.90
7958;DHT22;4024;52.172;5.378;2023-04-03T03:16:14;5.40;99.90
7958;DHT22;4024;52.172;5.378;2023-04-03T03:18:40;5.40;99.90
7958;DHT22;4024;52.172;5.378;2023-04-03T03:21:06;5.40;99.90
7958;DHT22;4024;52.172;5.378;2023-04-03T03:23:32;5.40;99.90
7958;DHT22;4024;52.172;5.378;2023-04-03T03:26:05;5.30;99.90
7958;DHT22;4024;52.172;5.378;2023-04-03T03:28:32;5.30;99.90
7958;DHT22;4024;52.172;5.378;2023-04-03T03:30:58;5.30;99.90
7958;DHT22;4024;52.172;5.378;2023-04-03T03:33:24;5.30;99.90
7958;DHT22;4024;52.172;5.378;2023-04-03T03:35:51;5.30;99.90
7958;DHT22;4024;52.172;5.378;2023-04-03T03:38:17;5.30;99.90
7958;DHT22;4024;52.172;5.378;2023-04-03T03:40:43;5.20;99.90
7958;DHT22;4024;52.172;5.378;2023-04-03T03:43:09;5.20;99.90
7958;DHT22;4024;52.172;5.378;2023-04-03T03:45:34;5.20;99.90
7958;DHT22;4024;52.172;5.378;2023-04-03T03:48:01;5.20;99.90
7958;DHT22;4024;52.172;5.378;2023-04-03T03:50:27;5.20;99.90
7958;DHT22;4024;52.172;5.378;2023-04-03T03:52:52;5.20;99.90
7958;DHT22;4024;52.172;5.378;2023-04-03T03:55:18;5.10;99.90
7958;DHT22;4024;52.172;5.378;2023-04-03T03:57:44;5.10;99.90
7958;DHT22;4024;52.172;5.378;2023-04-03T04:00:10;5.10;99.90
7958;DHT22;4024;52.172;5.378;2023-04-03T04:02:35;5.10;99.90
7958;DHT22;4024;52.172;5.378;2023-04-03T04:05:01;5.10;99.90
7958;DHT22;4024;52.172;5.378;2023-04-03T04:07:27;5.00;99.90
7958;DHT22;4024;52.172;5.378;2023-04-03T04:09:54;5.00;99.90
7958;DHT22;4024;52.172;5.378;2023-04-03T04:12:20;5.00;99.90
7958;DHT22;4024;52.172;5.378;2023-04-03T04:14:46;5.00;99.90
7958;DHT22;4024;52.172;5.378;2023-04-03T04:17:12;5.00;99.90
7958;DHT22;4024;52.172;5.378;2023-04-03T04:19:38;5.00;99.90
7958;DHT22;4024;52.172;5.378;2023-04-03T04:22:04;4.90;99.90
7958;DHT22;4024;52.172;5.378;2023-04-03T04:24:29;4.90;99.90
7958;DHT22;4024;52.172;5.378;2023-04-03T04:26:55;4.90;99.90
7958;DHT22;4024;52.172;5.378;2023-04-03T04:29:21;4.90;99.90
7958;DHT22;4024;52.172;5.378;2023-04-03T04:31:46;4.90;99.90
7958;DHT22;4024;52.172;5.378;2023-04-03T04:34:12;4.90;99.90
7958;DHT22;4024;52.172;5.378;2023-04-03T04:36:38;4.80;99.90
7958;DHT22;4024;52.172;5.378;2023-04-03T04:39:05;4.80;99.90
7958;DHT22;4024;52.172;5.378;2023-04-03T04:41:31;4.80;99.90
7958;DHT22;4024;52.172;5.378;2023-04-03T04:43:57;4.80;99.90
7958;DHT22;4024;52.172;5.378;2023-04-03T04:46:22;4.80;99.90
7958;DHT22;4024;52.172;5.378;2023-04-03T04:48:48;4.80;99.90
7958;DHT22;4024;52.172;5.378;2023-04-03T04:51:14;4.80;99.90
7958;DHT22;4024;52.172;5.378;2023-04-03T04:53:40;4.70;99.90
7958;DHT22;4024;52.172;5.378;2023-04-03T04:56:06;4.70;99.90
7958;DHT22;4024;52.172;5.378;2023-04-03T04:58:32;4.70;99.90
7958;DHT22;4024;52.172;5.378;2023-04-03T05:01:08;4.70;99.90
7958;DHT22;4024;52.172;5.378;2023-04-03T05:03:34;4.70;99.90
7958;DHT22;4024;52.172;5.378;2023-04-03T05:06:00;4.70;99.90
7958;DHT22;4024;52.172;5.378;2023-04-03T05:08:26;4.60;99.90
7958;DHT22;4024;52.172;5.378;2023-04-03T05:10:52;4.60;99.90
7958;DHT22;4024;52.172;5.378;2023-04-03T05:13:19;4.60;99.90
7958;DHT22;4024;52.172;5.378;2023-04-03T05:15:45;4.60;99.90
7958;DHT22;4024;52.172;5.378;2023-04-03T05:18:10;4.70;99.90
7958;DHT22;4024;52.172;5.378;2023-04-03T05:20:36;4.60;99.90
7958;DHT22;4024;52.172;5.378;2023-04-03T05:23:02;4.60;99.90
7958;DHT22;4024;52.172;5.378;2023-04-03T05:25:28;4.60;99.90
7958;DHT22;4024;52.172;5.378;2023-04-03T05:27:53;4.60;99.90
7958;DHT22;4024;52.172;5.378;2023-04-03T05:30:19;4.60;99.90
7958;DHT22;4024;52.172;5.378;2023-04-03T05:32:45;4.60;99.90
7958;DHT22;4024;52.172;5.378;2023-04-03T05:35:11;4.50;99.90
7958;DHT22;4024;52.172;5.378;2023-04-03T05:37:37;4.50;99.90
7958;DHT22;4024;52.172;5.378;2023-04-03T05:40:03;4.50;99.90
7958;DHT22;4024;52.172;5.378;2023-04-03T05:42:29;4.60;99.90
7958;DHT22;4024;52.172;5.378;2023-04-03T05:44:55;4.50;99.90
7958;DHT22;4024;52.172;5.378;2023-04-03T05:47:21;4.50;99.90
7958;DHT22;4024;52.172;5.378;2023-04-03T05:49:46;4.50;99.90
7958;DHT22;4024;52.172;5.378;2023-04-03T05:52:36;4.50;99.90
7958;DHT22;4024;52.172;5.378;2023-04-03T05:55:02;4.50;99.90
7958;DHT22;4024;52.172;5.378;2023-04-03T05:57:28;4.50;99.90
7958;DHT22;4024;52.172;5.378;2023-04-03T05:59:53;4.50;99.90
7958;DHT22;4024;52.172;5.378;2023-04-03T06:02:21;4.50;99.90
7958;DHT22;4024;52.172;5.378;2023-04-03T06:04:47;4.60;99.90
7958;DHT22;4024;52.172;5.378;2023-04-03T06:07:15;4.60;99.90
7958;DHT22;4024;52.172;5.378;2023-04-03T06:09:42;4.60;99.90
7958;DHT22;4024;52.172;5.378;2023-04-03T06:12:08;4.60;99.90
7958;DHT22;4024;52.172;5.378;2023-04-03T06:14:34;4.60;99.90
7958;DHT22;4024;52.172;5.378;2023-04-03T06:17:00;4.60;99.90
7958;DHT22;4024;52.172;5.378;2023-04-03T06:19:26;4.60;99.90
7958;DHT22;4024;52.172;5.378;2023-04-03T06:21:52;4.60;99.90
7958;DHT22;4024;52.172;5.378;2023-04-03T06:24:18;4.60;99.90
7958;DHT22;4024;52.172;5.378;2023-04-03T06:26:45;4.60;99.90
7958;DHT22;4024;52.172;5.378;2023-04-03T06:29:11;4.60;99.90
7958;DHT22;4024;52.172;5.378;2023-04-03T06:31:37;4.70;99.90
7958;DHT22;4024;52.172;5.378;2023-04-03T06:34:03;4.70;99.90
7958;DHT22;4024;52.172;5.378;2023-04-03T06:36:29;4.70;99.90
7958;DHT22;4024;52.172;5.378;2023-04-03T06:38:55;4.70;99.90
7958;DHT22;4024;52.172;5.378;2023-04-03T06:41:21;4.70;99.90
7958;DHT22;4024;52.172;5.378;2023-04-03T06:43:47;4.70;99.90
7958;DHT22;4024;52.172;5.378;2023-04-03T06:46:16;4.80;99.90
7958;DHT22;4024;52.172;5.378;2023-04-03T06:48:43;4.80;99.90
7958;DHT22;4024;52.172;5.378;2023-04-03T06:51:20;4.80;99.90
7958;DHT22;4024;52.172;5.378;2023-04-03T06:53:52;4.80;99.90
7958;DHT22;4024;52.172;5.378;2023-04-03T06:56:18;4.80;99.90
7958;DHT22;4024;52.172;5.378;2023-04-03T06:58:44;4.90;99.90
7958;DHT22;4024;52.172;5.378;2023-04-03T07:01:12;4.90;99.90
7958;DHT22;4024;52.172;5.378;2023-04-03T07:03:38;4.90;99.90
7958;DHT22;4024;52.172;5.378;2023-04-03T07:06:05;4.90;99.90
7958;DHT22;4024;52.172;5.378;2023-04-03T07:08:33;4.90;99.90
7958;DHT22;4024;52.172;5.378;2023-04-03T07:10:59;5.00;99.90
7958;DHT22;4024;52.172;5.378;2023-04-03T07:13:25;5.00;99.90
7958;DHT22;4024;52.172;5.378;2023-04-03T07:15:52;5.00;99.90
7958;DHT22;4024;52.172;5.378;2023-04-03T07:18:18;5.10;99.90
7958;DHT22;4024;52.172;5.378;2023-04-03T07:20:43;5.00;99.90
7958;DHT22;4024;52.172;5.378;2023-04-03T07:23:09;5.10;99.90
7958;DHT22;4024;52.172;5.378;2023-04-03T07:25:36;5.10;99.90
7958;DHT22;4024;52.172;5.378;2023-04-03T07:28:01;5.10;99.90
7958;DHT22;4024;52.172;5.378;2023-04-03T07:30:27;5.20;99.90
7958;DHT22;4024;52.172;5.378;2023-04-03T07:32:53;5.20;99.90
7958;DHT22;4024;52.172;5.378;2023-04-03T07:35:18;5.30;99.90
7958;DHT22;4024;52.172;5.378;2023-04-03T07:37:44;5.30;99.90
7958;DHT22;4024;52.172;5.378;2023-04-03T07:40:10;5.30;99.90
7958;DHT22;4024;52.172;5.378;2023-04-03T07:42:36;5.40;99.90
7958;DHT22;4024;52.172;5.378;2023-04-03T07:45:03;5.40;99.90
7958;DHT22;4024;52.172;5.378;2023-04-03T07:47:29;5.50;99.90
7958;DHT22;4024;52.172;5.378;2023-04-03T07:49:55;5.50;99.90
7958;DHT22;4024;52.172;5.378;2023-04-03T07:52:22;5.50;99.90
7958;DHT22;4024;52.172;5.378;2023-04-03T07:54:48;5.60;99.90
7958;DHT22;4024;52.172;5.378;2023-04-03T07:57:13;5.60;99.90
7958;DHT22;4024;52.172;5.378;2023-04-03T07:59:39;5.70;99.90
7958;DHT22;4024;52.172;5.378;2023-04-03T08:02:09;5.70;99.90
7958;DHT22;4024;52.172;5.378;2023-04-03T08:04:34;5.80;99.90
7958;DHT22;4024;52.172;5.378;2023-04-03T08:07:00;5.80;99.90
7958;DHT22;4024;52.172;5.378;2023-04-03T08:09:26;5.80;99.90
7958;DHT22;4024;52.172;5.378;2023-04-03T08:11:52;5.90;99.90
7958;DHT22;4024;52.172;5.378;2023-04-03T08:14:19;6.00;99.90
7958;DHT22;4024;52.172;5.378;2023-04-03T08:16:46;6.00;99.90
7958;DHT22;4024;52.172;5.378;2023-04-03T08:19:12;6.00;99.90
7958;DHT22;4024;52.172;5.378;2023-04-03T08:21:40;6.10;99.90
7958;DHT22;4024;52.172;5.378;2023-04-03T08:24:07;6.20;99.90
7958;DHT22;4024;52.172;5.378;2023-04-03T08:26:33;6.20;99.90
7958;DHT22;4024;52.172;5.378;2023-04-03T08:28:58;6.20;99.90
7958;DHT22;4024;52.172;5.378;2023-04-03T08:31:24;6.30;99.90
7958;DHT22;4024;52.172;5.378;2023-04-03T08:33:50;6.40;99.90
7958;DHT22;4024;52.172;5.378;2023-04-03T08:36:22;6.40;99.90
7958;DHT22;4024;52.172;5.378;2023-04-03T08:38:49;6.50;99.90
7958;DHT22;4024;52.172;5.378;2023-04-03T08:41:32;6.50;99.90
7958;DHT22;4024;52.172;5.378;2023-04-03T08:49:39;6.70;99.90
7958;DHT22;4024;52.172;5.378;2023-04-03T08:52:14;6.80;99.90
7958;DHT22;4024;52.172;5.378;2023-04-03T08:54:56;6.90;99.90
7958;DHT22;4024;52.172;5.378;2023-04-03T08:57:34;6.90;99.90
7958;DHT22;4024;52.172;5.378;2023-04-03T09:00:24;6.90;99.90
7958;DHT22;4024;52.172;5.378;2023-04-03T09:02:55;7.00;99.90
7958;DHT22;4024;52.172;5.378;2023-04-03T09:10:47;7.20;99.90
7958;DHT22;4024;52.172;5.378;2023-04-03T09:21:38;7.40;99.90
7958;DHT22;4024;52.172;5.378;2023-04-03T09:24:10;7.50;99.80
7958;DHT22;4024;52.172;5.378;2023-04-03T09:27:22;7.60;98.40
7958;DHT22;4024;52.172;5.378;2023-04-03T09:29:43;7.60;98.60
7958;DHT22;4024;52.172;5.378;2023-04-03T09:32:31;7.70;97.30
7958;DHT22;4024;52.172;5.378;2023-04-03T09:35:04;7.80;95.40
7958;DHT22;4024;52.172;5.378;2023-04-03T09:40:04;7.90;94.70
7958;DHT22;4024;52.172;5.378;2023-04-03T09:42:30;7.90;93.00
7958;DHT22;4024;52.172;5.378;2023-04-03T09:45:03;8.00;92.50
7958;DHT22;4024;52.172;5.378;2023-04-03T09:47:34;8.00;92.10
7958;DHT22;4024;52.172;5.378;2023-04-03T09:52:42;8.10;90.10
7958;DHT22;4024;52.172;5.378;2023-04-03T09:55:18;8.20;90.00
7958;DHT22;4024;52.172;5.378;2023-04-03T09:57:45;8.20;90.40
7958;DHT22;4024;52.172;5.378;2023-04-03T10:00:23;8.30;89.60
7958;DHT22;4024;52.172;5.378;2023-04-03T10:02:58;8.40;87.30
7958;DHT22;4024;52.172;5.378;2023-04-03T10:10:45;8.50;88.70
7958;DHT22;4024;52.172;5.378;2023-04-03T10:13:17;8.60;88.20
7958;DHT22;4024;52.172;5.378;2023-04-03T10:15:55;8.60;85.70
7958;DHT22;4024;52.172;5.378;2023-04-03T10:18:42;8.70;84.90
7958;DHT22;4024;52.172;5.378;2023-04-03T10:21:44;8.70;83.60
7958;DHT22;4024;52.172;5.378;2023-04-03T10:24:31;8.80;86.00
7958;DHT22;4024;52.172;5.378;2023-04-03T10:27:13;8.90;85.30
7958;DHT22;4024;52.172;5.378;2023-04-03T10:30:05;8.90;79.30
7958;DHT22;4024;52.172;5.378;2023-04-03T10:38:09;9.10;80.70
7958;DHT22;4024;52.172;5.378;2023-04-03T10:41:02;9.20;77.00
7958;DHT22;4024;52.172;5.378;2023-04-03T10:46:47;9.30;76.30
7958;DHT22;4024;52.172;5.378;2023-04-03T10:51:48;9.40;71.10
7958;DHT22;4024;52.172;5.378;2023-04-03T10:54:19;9.40;72.20
7958;DHT22;4024;52.172;5.378;2023-04-03T10:56:57;9.50;72.50
7958;DHT22;4024;52.172;5.378;2023-04-03T11:02:11;9.50;72.60
7958;DHT22;4024;52.172;5.378;2023-04-03T11:04:43;9.60;72.70
7958;DHT22;4024;52.172;5.378;2023-04-03T11:07:23;9.70;72.50
7958;DHT22;4024;52.172;5.378;2023-04-03T11:10:00;9.70;72.60
7958;DHT22;4024;52.172;5.378;2023-04-03T11:12:41;9.80;73.00
7958;DHT22;4024;52.172;5.378;2023-04-03T11:15:13;9.80;71.90
7958;DHT22;4024;52.172;5.378;2023-04-03T11:17:46;9.90;72.00
7958;DHT22;4024;52.172;5.378;2023-04-03T11:20:32;9.90;72.40
7958;DHT22;4024;52.172;5.378;2023-04-03T11:23:25;9.90;71.80
7958;DHT22;4024;52.172;5.378;2023-04-03T11:26:00;9.90;71.80
7958;DHT22;4024;52.172;5.378;2023-04-03T11:28:28;10.00;72.40
7958;DHT22;4024;52.172;5.378;2023-04-03T11:36:19;10.20;74.00
7958;DHT22;4024;52.172;5.378;2023-04-03T11:38:49;10.20;70.00
7958;DHT22;4024;52.172;5.378;2023-04-03T11:41:16;10.30;73.50
7958;DHT22;4024;52.172;5.378;2023-04-03T11:44:01;10.30;71.90
7958;DHT22;4024;52.172;5.378;2023-04-03T11:46:56;10.40;70.90
7958;DHT22;4024;52.172;5.378;2023-04-03T11:49:50;10.40;72.20
7958;DHT22;4024;52.172;5.378;2023-04-03T12:00:55;10.60;71.60
7958;DHT22;4024;52.172;5.378;2023-04-03T12:13:39;10.70;72.00
7958;DHT22;4024;52.172;5.378;2023-04-03T12:16:07;10.80;71.50
7958;DHT22;4024;52.172;5.378;2023-04-03T12:23:59;10.90;71.60
7958;DHT22;4024;52.172;5.378;2023-04-03T12:43:16;11.10;67.20
7958;DHT22;4024;52.172;5.378;2023-04-03T12:45:56;11.10;66.60
7958;DHT22;4024;52.172;5.378;2023-04-03T12:48:27;11.20;68.00
7958;DHT22;4024;52.172;5.378;2023-04-03T12:50:54;11.20;66.90
7958;DHT22;4024;52.172;5.378;2023-04-03T12:53:31;11.20;65.30
7958;DHT22;4024;52.172;5.378;2023-04-03T12:56:19;11.20;66.50
7958;DHT22;4024;52.172;5.378;2023-04-03T12:58:49;11.30;66.10
7958;DHT22;4024;52.172;5.378;2023-04-03T13:01:18;11.40;65.90
7958;DHT22;4024;52.172;5.378;2023-04-03T13:03:47;11.40;66.30
7958;DHT22;4024;52.172;5.378;2023-04-03T13:06:38;11.40;66.60
7958;DHT22;4024;52.172;5.378;2023-04-03T13:09:14;11.40;66.20
7958;DHT22;4024;52.172;5.378;2023-04-03T13:11:44;11.50;67.60
7958;DHT22;4024;52.172;5.378;2023-04-03T13:14:19;11.60;66.20
7958;DHT22;4024;52.172;5.378;2023-04-03T13:16:59;11.60;63.60
7958;DHT22;4024;52.172;5.378;2023-04-03T13:19:28;11.60;66.10
7958;DHT22;4024;52.172;5.378;2023-04-03T13:22:01;11.60;67.30
7958;DHT22;4024;52.172;5.378;2023-04-03T13:24:29;11.60;66.50
7958;DHT22;4024;52.172;5.378;2023-04-03T13:26:56;11.70;64.80
7958;DHT22;4024;52.172;5.378;2023-04-03T13:29:27;11.70;64.30
7958;DHT22;4024;52.172;5.378;2023-04-03T13:31:54;11.70;63.40
7958;DHT22;4024;52.172;5.378;2023-04-03T13:34:22;11.70;63.80
7958;DHT22;4024;52.172;5.378;2023-04-03T13:41:50;11.80;64.60
7958;DHT22;4024;52.172;5.378;2023-04-03T13:46:49;11.90;65.80
7958;DHT22;4024;52.172;5.378;2023-04-03T13:51:53;11.90;66.40
7958;DHT22;4024;52.172;5.378;2023-04-03T13:54:25;12.00;67.10
7958;DHT22;4024;52.172;5.378;2023-04-03T13:56:55;12.10;67.90
7958;DHT22;4024;52.172;5.378;2023-04-03T14:04:33;12.20;66.50
7958;DHT22;4024;52.172;5.378;2023-04-03T14:07:10;12.20;66.10
7958;DHT22;4024;52.172;5.378;2023-04-03T14:09:36;12.20;67.10
7958;DHT22;4024;52.172;5.378;2023-04-03T14:12:08;12.30;67.40
7958;DHT22;4024;52.172;5.378;2023-04-03T14:14:37;12.30;66.20
7958;DHT22;4024;52.172;5.378;2023-04-03T14:17:17;12.40;68.00
7958;DHT22;4024;52.172;5.378;2023-04-03T14:19:44;12.30;66.30
7958;DHT22;4024;52.172;5.378;2023-04-03T14:22:27;12.30;64.60
7958;DHT22;4024;52.172;5.378;2023-04-03T14:24:53;12.40;64.50
7958;DHT22;4024;52.172;5.378;2023-04-03T14:29:48;12.40;65.60
7958;DHT22;4024;52.172;5.378;2023-04-03T14:32:15;12.50;66.30
7958;DHT22;4024;52.172;5.378;2023-04-03T14:34:42;12.40;64.70
7958;DHT22;4024;52.172;5.378;2023-04-03T14:37:17;12.50;65.90
7958;DHT22;4024;52.172;5.378;2023-04-03T14:39:44;12.40;64.50
7958;DHT22;4024;52.172;5.378;2023-04-03T14:42:19;12.60;64.60
7958;DHT22;4024;52.172;5.378;2023-04-03T14:44:45;12.50;65.40
7958;DHT22;4024;52.172;5.378;2023-04-03T14:47:16;12.60;65.40
7958;DHT22;4024;52.172;5.378;2023-04-03T14:49:43;12.60;64.60
7958;DHT22;4024;52.172;5.378;2023-04-03T14:52:38;12.60;64.00
7958;DHT22;4024;52.172;5.378;2023-04-03T14:55:06;12.60;65.90
7958;DHT22;4024;52.172;5.378;2023-04-03T14:57:32;12.60;65.30
7958;DHT22;4024;52.172;5.378;2023-04-03T14:59:58;12.70;65.40
7958;DHT22;4024;52.172;5.378;2023-04-03T15:02:37;12.70;66.20
7958;DHT22;4024;52.172;5.378;2023-04-03T15:05:07;12.70;63.60
7958;DHT22;4024;52.172;5.378;2023-04-03T15:07:43;12.70;65.60
7958;DHT22;4024;52.172;5.378;2023-04-03T15:10:22;12.70;66.80
7958;DHT22;4024;52.172;5.378;2023-04-03T15:12:49;12.70;66.10
7958;DHT22;4024;52.172;5.378;2023-04-03T15:15:17;12.70;66.30
7958;DHT22;4024;52.172;5.378;2023-04-03T15:17:44;12.70;67.30
7958;DHT22;4024;52.172;5.378;2023-04-03T15:20:16;12.70;65.40
7958;DHT22;4024;52.172;5.378;2023-04-03T15:22:42;12.70;65.60
7958;DHT22;4024;52.172;5.378;2023-04-03T15:25:08;12.70;66.70
7958;DHT22;4024;52.172;5.378;2023-04-03T15:27:34;12.70;66.70
7958;DHT22;4024;52.172;5.378;2023-04-03T15:30:00;12.70;64.60
7958;DHT22;4024;52.172;5.378;2023-04-03T15:32:26;12.70;66.30
7958;DHT22;4024;52.172;5.378;2023-04-03T15:34:51;12.70;67.90
7958;DHT22;4024;52.172;5.378;2023-04-03T15:37:18;12.70;67.70
7958;DHT22;4024;52.172;5.378;2023-04-03T15:39:44;12.70;68.40
7958;DHT22;4024;52.172;5.378;2023-04-03T15:42:09;12.70;69.00
7958;DHT22;4024;52.172;5.378;2023-04-03T15:44:37;12.70;69.10
7958;DHT22;4024;52.172;5.378;2023-04-03T15:47:03;12.70;68.00
7958;DHT22;4024;52.172;5.378;2023-04-03T15:49:29;12.60;68.00
7958;DHT22;4024;52.172;5.378;2023-04-03T15:51:55;12.70;69.00
7958;DHT22;4024;52.172;5.378;2023-04-03T15:54:20;12.70;69.40
7958;DHT22;4024;52.172;5.378;2023-04-03T15:56:46;12.70;70.50
7958;DHT22;4024;52.172;5.378;2023-04-03T15:59:11;12.60;70.00
7958;DHT22;4024;52.172;5.378;2023-04-03T16:01:38;12.60;69.00
7958;DHT22;4024;52.172;5.378;2023-04-03T16:04:05;12.60;69.90
7958;DHT22;4024;52.172;5.378;2023-04-03T16:06:32;12.50;69.30
7958;DHT22;4024;52.172;5.378;2023-04-03T16:08:59;12.50;70.20
7958;DHT22;4024;52.172;5.378;2023-04-03T16:11:26;12.50;71.10
7958;DHT22;4024;52.172;5.378;2023-04-03T16:13:52;12.50;71.40
7958;DHT22;4024;52.172;5.378;2023-04-03T16:16:18;12.50;70.60
7958;DHT22;4024;52.172;5.378;2023-04-03T16:18:44;12.50;70.60
7958;DHT22;4024;52.172;5.378;2023-04-03T16:21:12;12.40;71.10
7958;DHT22;4024;52.172;5.378;2023-04-03T16:23:39;12.40;71.30
7958;DHT22;4024;52.172;5.378;2023-04-03T16:26:05;12.40;70.80
7958;DHT22;4024;52.172;5.378;2023-04-03T16:28:31;12.40;71.80
7958;DHT22;4024;52.172;5.378;2023-04-03T16:30:57;12.30;70.90
7958;DHT22;4024;52.172;5.378;2023-04-03T16:33:23;12.20;70.20
7958;DHT22;4024;52.172;5.378;2023-04-03T16:35:50;12.30;72.60
7958;DHT22;4024;52.172;5.378;2023-04-03T16:38:17;12.20;73.10
7958;DHT22;4024;52.172;5.378;2023-04-03T16:40:44;12.20;73.60
7958;DHT22;4024;52.172;5.378;2023-04-03T16:43:10;12.30;72.90
7958;DHT22;4024;52.172;5.378;2023-04-03T16:45:36;12.20;73.80
7958;DHT22;4024;52.172;5.378;2023-04-03T16:48:01;12.20;72.80
7958;DHT22;4024;52.172;5.378;2023-04-03T16:50:27;12.20;73.30
7958;DHT22;4024;52.172;5.378;2023-04-03T16:52:53;12.20;72.60
7958;DHT22;4024;52.172;5.378;2023-04-03T16:55:18;12.20;72.60
7958;DHT22;4024;52.172;5.378;2023-04-03T16:57:46;12.10;71.70
7958;DHT22;4024;52.172;5.378;2023-04-03T17:00:12;12.10;71.10
7958;DHT22;4024;52.172;5.378;2023-04-03T17:02:38;12.00;71.60
7958;DHT22;4024;52.172;5.378;2023-04-03T17:05:04;12.00;73.00
7958;DHT22;4024;52.172;5.378;2023-04-03T17:07:30;12.00;72.50
7958;DHT22;4024;52.172;5.378;2023-04-03T17:09:55;12.00;72.80
7958;DHT22;4024;52.172;5.378;2023-04-03T17:12:21;12.00;73.40
7958;DHT22;4024;52.172;5.378;2023-04-03T17:14:47;12.00;73.40
7958;DHT22;4024;52.172;5.378;2023-04-03T17:17:14;11.90;73.60
7958;DHT22;4024;52.172;5.378;2023-04-03T17:19:41;11.90;73.80
7958;DHT22;4024;52.172;5.378;2023-04-03T17:22:08;11.90;74.00
7958;DHT22;4024;52.172;5.378;2023-04-03T17:24:35;11.80;74.40
7958;DHT22;4024;52.172;5.378;2023-04-03T17:27:01;11.80;75.50
7958;DHT22;4024;52.172;5.378;2023-04-03T17:29:27;11.70;75.00
7958;DHT22;4024;52.172;5.378;2023-04-03T17:31:52;11.70;76.40
7958;DHT22;4024;52.172;5.378;2023-04-03T17:34:18;11.60;76.90
7958;DHT22;4024;52.172;5.378;2023-04-03T17:36:44;11.60;77.40
7958;DHT22;4024;52.172;5.378;2023-04-03T17:39:10;11.50;78.50
7958;DHT22;4024;52.172;5.378;2023-04-03T17:41:35;11.50;77.10
7958;DHT22;4024;52.172;5.378;2023-04-03T17:44:03;11.40;77.50
7958;DHT22;4024;52.172;5.378;2023-04-03T17:46:28;11.30;77.30
7958;DHT22;4024;52.172;5.378;2023-04-03T17:48:54;11.30;77.60
7958;DHT22;4024;52.172;5.378;2023-04-03T17:51:22;11.20;77.70
7958;DHT22;4024;52.172;5.378;2023-04-03T17:53:48;11.10;78.00
7958;DHT22;4024;52.172;5.378;2023-04-03T17:56:19;11.10;78.70
7958;DHT22;4024;52.172;5.378;2023-04-03T17:58:47;11.00;78.80
7958;DHT22;4024;52.172;5.378;2023-04-03T18:01:18;11.00;79.70
7958;DHT22;4024;52.172;5.378;2023-04-03T18:03:45;11.00;80.00
7958;DHT22;4024;52.172;5.378;2023-04-03T18:06:16;10.90;80.70
7958;DHT22;4024;52.172;5.378;2023-04-03T18:08:47;10.80;81.00
7958;DHT22;4024;52.172;5.378;2023-04-03T18:11:15;10.80;82.00
7958;DHT22;4024;52.172;5.378;2023-04-03T18:13:41;10.80;82.70
7958;DHT22;4024;52.172;5.378;2023-04-03T18:16:08;10.70;83.30